Time;durP1;ratioP1;P1;durP2;ratioP2;P2;SDS_P1;SDS_P2;PMS_P1;PMS_P2;Temp;Humidity;BMP_temperature;BMP_pressure;BME280_temperature;BME280_humidity;BME280_pressure;Samples;Min_cycle;Max_cycle;Signal;HPM_P1;HPM_P2
2023/09/27 00:01:27;;;;;;;10.60;4.93;;;;;;;-143.21;61.08;71905.63;6332528;22;20171;-78
2023/09/27 00:03:54;;;;;;;13.43;5.07;;;;;;;-143.21;60.94;71909.56;6331999;22;20297;-77
2023/09/27 00:06:22;;;;;;;12.75;4.47;;;;;;;-143.21;60.76;71905.63;6333478;22;20737;-76
2023/09/27 00:08:49;;;;;;;17.45;5.22;;;;;;;-143.21;59.84;71871.91;6332922;22;20167;-76
2023/09/27 00:11:16;;;;;;;16.67;5.38;;;;;;;-143.21;59.58;71862.00;6331436;22;20490;-76
2023/09/27 00:13:43;;;;;;;13.63;4.43;;;;;;;-143.21;59.99;71875.88;6330548;22;20175;-76
2023/09/27 00:16:10;;;;;;;17.52;5.07;;;;;;;-143.21;60.62;71893.72;6331377;22;20240;-76
2023/09/27 00:18:36;;;;;;;15.55;5.07;;;;;;;-143.21;60.76;71907.59;6333573;22;20225;-76
2023/09/27 00:21:04;;;;;;;10.50;5.30;;;;;;;-143.21;60.63;71909.56;6330927;22;20170;-77
2023/09/27 00:23:32;;;;;;;11.82;5.03;;;;;;;-143.21;61.06;71919.50;6332053;22;20652;-77
2023/09/27 00:25:59;;;;;;;11.38;4.85;;;;;;;-143.21;61.23;71921.47;6331486;22;20249;-78
2023/09/27 00:28:27;;;;;;;10.25;5.03;;;;;;;-143.21;61.62;71929.41;6333503;22;20221;-78
2023/09/27 00:30:55;;;;;;;14.15;4.80;;;;;;;-143.21;61.81;71929.41;6332399;22;20456;-79
2023/09/27 00:33:22;;;;;;;14.25;5.47;;;;;;;-143.21;61.97;71935.34;6332007;22;20510;-79
2023/09/27 00:35:50;;;;;;;17.40;5.88;;;;;;;-143.21;61.99;71931.38;6331847;22;20166;-78
2023/09/27 00:38:19;;;;;;;13.50;4.63;;;;;;;-143.21;61.28;71903.63;6332551;22;20172;-78
2023/09/27 00:40:49;;;;;;;15.50;5.13;;;;;;;-143.21;60.46;71877.84;6334701;22;20164;-78
2023/09/27 00:43:26;;;;;;;12.38;5.03;;;;;;;-143.21;60.20;71879.84;6332233;22;20187;-78
2023/09/27 00:45:54;;;;;;;11.75;5.13;;;;;;;-143.21;60.56;71895.69;6331408;22;20187;-78
2023/09/27 00:48:21;;;;;;;16.58;4.90;;;;;;;-143.21;60.91;71905.63;6331430;22;20163;-78
2023/09/27 00:50:48;;;;;;;9.30;4.95;;;;;;;-143.21;61.26;71913.53;6332538;22;20167;-79
2023/09/27 00:53:15;;;;;;;14.82;5.35;;;;;;;-143.21;61.61;71927.44;6333286;22;20510;-79
2023/09/27 00:55:42;;;;;;;10.73;4.75;;;;;;;-143.21;62.05;71945.28;6330452;22;20518;-79
2023/09/27 00:58:11;;;;;;;13.52;5.72;;;;;;;-143.21;62.55;71955.19;6330762;22;20646;-79
2023/09/27 01:00:39;;;;;;;13.00;5.72;;;;;;;-143.21;62.73;71963.13;6335928;22;20337;-78
2023/09/27 01:03:07;;;;;;;11.43;5.30;;;;;;;-143.21;62.98;71965.09;6336938;22;20171;-79
2023/09/27 01:05:34;;;;;;;16.90;5.30;;;;;;;-143.21;63.25;71975.00;6330812;22;20210;-78
2023/09/27 01:08:01;;;;;;;11.82;5.25;;;;;;;-143.21;63.38;71977.00;6331025;22;20174;-79
2023/09/27 01:10:27;;;;;;;21.95;5.93;;;;;;;-143.21;63.49;71978.97;6329836;22;20217;-78
2023/09/27 01:12:54;;;;;;;19.95;5.60;;;;;;;-143.21;63.72;71982.94;6332496;22;20167;-78
2023/09/27 01:15:23;;;;;;;20.15;5.88;;;;;;;-143.21;64.07;71978.97;6332465;22;20172;-78
2023/09/27 01:17:54;;;;;;;14.00;5.85;;;;;;;-143.21;64.11;71986.91;6331919;22;20527;-79
2023/09/27 01:20:21;;;;;;;15.75;5.30;;;;;;;-143.21;64.49;71992.88;6331452;22;20228;-75
2023/09/27 01:22:55;;;;;;;15.45;5.88;;;;;;;-143.21;64.51;71990.88;6331206;22;20612;-77
2023/09/27 01:25:26;;;;;;;9.70;5.05;;;;;;;-143.21;64.85;71994.84;6333398;22;20152;-77
2023/09/27 01:27:53;;;;;;;11.18;5.15;;;;;;;-143.21;64.84;72002.78;6329155;22;20162;-77
2023/09/27 01:30:20;;;;;;;11.68;5.07;;;;;;;-143.21;65.09;71994.84;6330752;22;20163;-77
2023/09/27 01:32:46;;;;;;;8.70;5.15;;;;;;;-143.21;65.18;71998.81;6332092;22;20171;-76
2023/09/27 01:35:13;;;;;;;13.35;5.50;;;;;;;-143.21;65.30;71998.81;6331475;22;20168;-76
2023/09/27 01:37:40;;;;;;;12.93;5.45;;;;;;;-143.21;65.35;71996.81;6332476;22;20167;-76
2023/09/27 01:40:14;;;;;;;14.20;5.45;;;;;;;-143.21;65.35;72002.78;6330412;22;20544;-77
2023/09/27 01:42:43;;;;;;;14.63;5.45;;;;;;;-143.21;65.44;71998.81;6331175;22;20171;-77
2023/09/27 01:45:12;;;;;;;10.20;5.18;;;;;;;-143.21;65.30;71994.84;6330494;22;20277;-76
2023/09/27 01:47:39;;;;;;;12.40;5.38;;;;;;;-143.21;65.27;71990.88;6331920;22;20195;-78
2023/09/27 01:50:08;;;;;;;17.23;5.88;;;;;;;-143.21;65.26;71990.88;6331475;22;20664;-78
2023/09/27 01:52:35;;;;;;;15.15;5.30;;;;;;;-143.21;65.37;71998.81;6331829;22;20171;-77
2023/09/27 01:55:01;;;;;;;14.95;5.90;;;;;;;-143.21;65.36;71996.81;6330318;22;20175;-77
2023/09/27 01:57:30;;;;;;;16.02;4.90;;;;;;;-143.21;65.42;71996.81;6331024;22;20191;-77
2023/09/27 01:59:56;;;;;;;14.07;5.35;;;;;;;-143.21;65.35;71994.84;6332924;22;20549;-78
2023/09/27 02:02:23;;;;;;;14.13;5.65;;;;;;;-143.21;65.32;71990.88;6331191;22;20164;-79
2023/09/27 02:04:50;;;;;;;9.50;5.00;;;;;;;-143.21;65.51;71994.84;6330901;22;20163;-76
2023/09/27 02:07:27;;;;;;;16.77;5.47;;;;;;;-143.21;65.65;71994.84;6328420;22;20184;-78
2023/09/27 02:10:00;;;;;;;15.23;5.93;;;;;;;-143.21;65.73;71994.84;6330475;22;20234;-78
2023/09/27 02:12:28;;;;;;;15.32;5.50;;;;;;;-143.21;65.96;71996.81;6330748;22;20246;-77
2023/09/27 02:14:58;;;;;;;12.38;5.40;;;;;;;-143.21;65.83;71998.81;6328457;22;20173;-77
2023/09/27 02:17:35;;;;;;;17.10;5.63;;;;;;;-143.21;65.93;72000.78;6329113;22;20160;-78
2023/09/27 02:20:05;;;;;;;11.55;5.72;;;;;;;-143.21;65.93;72008.72;6327866;22;20740;-77
2023/09/27 02:22:31;;;;;;;17.40;5.28;;;;;;;-143.21;66.12;72006.75;6329855;22;20170;-78
2023/09/27 02:24:58;;;;;;;15.07;5.97;;;;;;;-143.21;66.18;72010.72;6327474;22;20175;-78
2023/09/27 02:27:25;;;;;;;13.93;5.75;;;;;;;-143.21;66.31;72010.72;6329277;22;20187;-78
2023/09/27 02:29:52;;;;;;;10.35;5.88;;;;;;;-143.21;66.18;72008.72;6329358;22;20174;-79
2023/09/27 02:35:53;;;;;;;12.88;5.28;;;;;;;-143.21;66.22;72020.63;6226526;23;20703;-79
2023/09/27 02:38:19;;;;;;;12.27;5.30;;;;;;;-143.21;66.15;72030.53;6308021;22;20663;-77
2023/09/27 02:40:46;;;;;;;11.82;5.25;;;;;;;-143.21;65.96;72028.56;6329548;22;20168;-77
2023/09/27 02:43:13;;;;;;;18.25;6.53;;;;;;;-143.21;66.36;72032.53;6329233;22;20171;-78
2023/09/27 02:45:40;;;;;;;15.32;5.20;;;;;;;-143.21;65.87;72044.41;6328772;22;20171;-77
2023/09/27 02:48:17;;;;;;;12.95;5.70;;;;;;;-143.21;65.87;72048.38;6328855;22;20198;-77
2023/09/27 02:50:48;;;;;;;9.88;5.55;;;;;;;-143.21;65.93;72048.38;6329807;22;20555;-76
2023/09/27 02:53:17;;;;;;;12.98;5.60;;;;;;;-143.21;66.09;72050.38;6328581;22;20156;-80
2023/09/27 02:55:43;;;;;;;14.90;5.10;;;;;;;-143.21;66.01;72054.34;6329286;22;20191;-78
2023/09/27 02:58:15;;;;;;;14.50;5.70;;;;;;;-143.21;65.90;72054.34;6328986;22;20155;-78
2023/09/27 03:00:42;;;;;;;10.88;6.00;;;;;;;-143.21;66.10;72062.25;6329610;22;20516;-79
2023/09/27 03:03:13;;;;;;;15.75;5.90;;;;;;;-143.21;66.25;72066.22;6301964;22;20175;-76
2023/09/27 03:05:51;;;;;;;9.52;5.90;;;;;;;-143.21;66.16;72064.25;6327917;22;20269;-77
2023/09/27 03:11:34;;;;;;;16.00;5.93;;;;;;;-143.21;66.38;72064.25;6305931;22;20175;-77
2023/09/27 03:14:23;;;;;;;14.30;6.05;;;;;;;-143.21;66.29;72072.19;6328235;22;20642;-78
2023/09/27 03:16:57;;;;;;;18.73;5.80;;;;;;;-143.21;65.79;72070.19;6328622;22;20689;-77
2023/09/27 03:19:46;;;;;;;12.75;5.97;;;;;;;-143.21;65.61;72068.22;6330397;22;20160;-77
2023/09/27 03:22:24;;;;;;;15.88;6.30;;;;;;;-143.21;65.65;72066.22;6328990;22;20183;-77
2023/09/27 03:24:53;;;;;;;11.32;5.93;;;;;;;-143.21;65.30;72068.22;6326261;22;20171;-77
2023/09/27 03:30:53;;;;;;;15.37;6.20;;;;;;;-143.21;65.35;72072.19;6304909;22;20174;-79
2023/09/27 03:33:25;;;;;;;15.63;5.53;;;;;;;-143.21;65.27;72082.09;6327685;22;20555;-78
2023/09/27 03:35:55;;;;;;;13.13;6.40;;;;;;;-143.21;65.13;72080.13;6329758;22;20236;-77
2023/09/27 03:38:23;;;;;;;11.80;6.43;;;;;;;-143.21;64.84;72082.09;6333111;22;20160;-81
2023/09/27 03:40:54;;;;;;;16.77;6.50;;;;;;;-143.21;65.06;72088.03;6332946;22;20171;-85
2023/09/27 03:43:35;;;;;;;18.77;6.68;;;;;;;-143.21;65.26;72092.00;6336249;22;20170;-83
2023/09/27 03:46:03;;;;;;;12.45;6.50;;;;;;;-143.21;65.35;72094.00;6330819;22;20155;-78
2023/09/27 03:48:31;;;;;;;18.15;5.90;;;;;;;-143.21;65.62;72095.97;6330205;22;20195;-78
2023/09/27 03:50:58;;;;;;;14.67;6.17;;;;;;;-143.21;65.01;72097.97;6331992;22;20511;-79
2023/09/27 03:53:44;;;;;;;13.47;6.20;;;;;;;-143.21;64.59;72101.94;6330016;22;20164;-77
2023/09/27 03:56:22;;;;;;;;;;;;;;;;;;;;;
2023/09/27 04:02:01;;;;;;;15.85;6.50;;;;;;;-143.21;64.30;72092.00;6263895;22;20161;-77
2023/09/27 04:05:07;;;;;;;;;;;;;;;;;;;;;
2023/09/27 04:07:39;;;;;;;11.95;6.20;;;;;;;-143.21;64.07;72097.97;6310351;22;20677;-77
2023/09/27 04:10:29;;;;;;;16.55;6.75;;;;;;;-143.21;63.91;72097.97;6331245;22;20489;-78
2023/09/27 04:12:57;;;;;;;16.23;6.70;;;;;;;-143.21;63.78;72097.97;6330761;22;20636;-77
2023/09/27 04:15:31;;;;;;;15.27;6.63;;;;;;;-143.21;64.03;72101.94;6329667;22;20178;-77
2023/09/27 04:17:57;;;;;;;14.35;5.95;;;;;;;-143.21;64.18;72103.91;6328755;22;20152;-77
2023/09/27 04:20:25;;;;;;;15.38;6.40;;;;;;;-143.21;64.43;72103.91;6329496;22;20228;-76
2023/09/27 04:22:53;;;;;;;17.05;6.97;;;;;;;-143.21;64.08;72105.91;6330728;22;20529;-76
2023/09/27 04:25:22;;;;;;;22.48;6.43;;;;;;;-143.21;63.79;72101.94;6328374;22;20163;-78
2023/09/27 04:27:50;;;;;;;15.40;6.83;;;;;;;-143.21;63.58;72099.94;6329706;22;20302;-77
2023/09/27 04:30:22;;;;;;;13.98;6.45;;;;;;;-143.21;63.34;72095.97;6330420;22;20167;-77
2023/09/27 04:32:51;;;;;;;17.63;6.55;;;;;;;-143.21;63.41;72097.97;6330495;22;20242;-77
2023/09/27 04:35:20;;;;;;;19.17;6.63;;;;;;;-143.21;63.33;72092.00;6331672;22;20156;-78
2023/09/27 04:37:46;;;;;;;12.77;6.63;;;;;;;-143.21;63.40;72090.03;6329938;22;20658;-77
2023/09/27 04:40:18;;;;;;;13.30;6.75;;;;;;;-143.21;62.93;72097.97;6330418;22;20171;-79
2023/09/27 04:42:46;;;;;;;15.35;7.00;;;;;;;-143.21;63.07;72097.97;6328963;22;20602;-77
2023/09/27 04:45:14;;;;;;;18.63;6.82;;;;;;;-143.21;63.02;72097.97;6331581;22;20272;-84
2023/09/27 04:47:44;;;;;;;16.80;6.13;;;;;;;-143.21;63.03;72101.94;6330913;22;20214;-77
2023/09/27 04:50:11;;;;;;;16.35;6.95;;;;;;;-143.21;63.02;72099.94;6329886;22;20178;-80
2023/09/27 04:52:38;;;;;;;11.80;7.05;;;;;;;-143.21;62.95;72099.94;6329159;22;20757;-78
2023/09/27 04:55:08;;;;;;;14.23;7.07;;;;;;;-143.21;62.85;72097.97;6328439;22;20181;-77
2023/09/27 04:57:35;;;;;;;18.30;7.88;;;;;;;-143.21;62.77;72097.97;6329949;22;20273;-79
2023/09/27 05:00:14;;;;;;;18.55;7.28;;;;;;;-143.21;62.59;72092.00;6329576;22;20163;-80
2023/09/27 05:02:41;;;;;;;11.90;6.00;;;;;;;-143.21;62.56;72086.06;6330037;22;20164;-79
2023/09/27 05:05:13;;;;;;;12.18;6.32;;;;;;;-143.21;62.56;72092.00;6328926;22;20167;-81
2023/09/27 05:07:40;;;;;;;20.33;6.75;;;;;;;-143.21;63.15;72088.03;6329005;22;20187;-79
2023/09/27 05:10:08;;;;;;;17.20;7.43;;;;;;;-143.21;63.13;72082.09;6328373;22;20186;-80
2023/09/27 05:12:35;;;;;;;18.17;6.97;;;;;;;-143.21;62.34;72082.09;6329961;22;20494;-80
2023/09/27 05:15:02;;;;;;;17.85;6.93;;;;;;;-143.21;62.66;72082.09;6328447;22;20170;-78
2023/09/27 05:17:28;;;;;;;17.52;6.82;;;;;;;-143.21;62.51;72072.19;6329124;22;20163;-79
2023/09/27 05:19:55;;;;;;;28.55;7.20;;;;;;;-143.21;62.35;72070.19;6329419;22;20716;-79
2023/09/27 05:22:26;;;;;;;14.05;6.90;;;;;;;-143.21;62.54;72068.22;6330133;22;20159;-79
2023/09/27 05:24:53;;;;;;;33.05;7.45;;;;;;;-143.21;62.49;72072.19;6326907;22;20661;-80
2023/09/27 05:27:20;;;;;;;35.65;7.78;;;;;;;-143.21;62.40;72070.19;6329796;22;20191;-79
2023/09/27 05:29:47;;;;;;;13.95;7.28;;;;;;;-143.21;62.53;72066.22;6329795;22;20178;-78
2023/09/27 05:32:14;;;;;;;15.50;6.60;;;;;;;-143.21;62.47;72058.31;6331543;22;20171;-80
2023/09/27 05:34:41;;;;;;;22.88;7.40;;;;;;;-143.21;62.33;72054.34;6330206;22;20203;-78
2023/09/27 05:37:10;;;;;;;18.63;7.50;;;;;;;-143.21;62.40;72062.25;6329166;22;20706;-79
2023/09/27 05:39:44;;;;;;;23.88;7.57;;;;;;;-143.21;62.38;72058.31;6329418;22;20171;-78
2023/09/27 05:42:14;;;;;;;16.13;6.85;;;;;;;-143.21;62.57;72054.34;6333828;22;20167;-77
2023/09/27 05:44:41;;;;;;;20.80;7.10;;;;;;;-143.21;62.59;72050.38;6341404;22;20189;-78
2023/09/27 05:47:09;;;;;;;15.65;6.35;;;;;;;-143.21;61.86;72044.41;6329245;22;20750;-78
2023/09/27 05:49:39;;;;;;;12.02;6.47;;;;;;;-143.21;62.10;72044.41;6330209;22;20174;-79
2023/09/27 05:52:11;;;;;;;33.80;7.90;;;;;;;-143.21;62.54;72042.44;6330654;22;20697;-79
2023/09/27 05:54:38;;;;;;;18.08;6.40;;;;;;;-143.21;61.86;72036.50;6339003;22;20242;-79
2023/09/27 05:57:07;;;;;;;11.70;6.70;;;;;;;-143.21;61.96;72024.59;6331536;22;20674;-77
2023/09/27 05:59:44;;;;;;;19.58;6.65;;;;;;;-143.21;61.50;72018.63;6330977;22;20176;-78
2023/09/27 06:02:16;;;;;;;18.23;6.15;;;;;;;-143.21;61.09;72014.69;6329432;22;20780;-79
2023/09/27 06:04:49;;;;;;;18.08;6.72;;;;;;;-143.21;61.15;72008.72;6330400;22;20200;-80
2023/09/27 06:07:22;;;;;;;10.32;6.30;;;;;;;-143.21;61.06;72010.72;6330707;22;20238;-78
2023/09/27 06:09:50;;;;;;;12.20;6.53;;;;;;;-143.21;61.02;72004.75;6330968;22;20259;-79
2023/09/27 06:12:18;;;;;;;19.83;6.68;;;;;;;-143.21;61.04;71986.91;6329442;22;20170;-77
2023/09/27 06:14:46;;;;;;;15.20;7.00;;;;;;;-143.21;61.01;71986.91;6328948;22;20178;-79
2023/09/27 06:17:15;;;;;;;31.20;6.78;;;;;;;-143.21;60.50;71980.97;6328478;22;20202;-77
2023/09/27 06:19:42;;;;;;;14.13;6.15;;;;;;;-143.21;60.23;71969.06;6331104;22;20176;-78
2023/09/27 06:22:10;;;;;;;11.23;6.53;;;;;;;-143.21;60.34;71961.13;6329017;22;20174;-77
2023/09/27 06:24:37;;;;;;;10.48;6.32;;;;;;;-143.21;59.86;71951.22;6327064;22;20515;-77
2023/09/27 06:27:04;;;;;;;22.85;6.55;;;;;;;-143.21;59.59;71941.31;6330056;22;20178;-78
2023/09/27 06:29:33;;;;;;;56.75;8.80;;;;;;;-143.21;59.50;71939.31;6330808;22;20174;-78
2023/09/27 06:31:59;;;;;;;15.30;6.30;;;;;;;-143.21;58.99;71933.38;6330759;22;20174;-77
2023/09/27 06:34:27;;;;;;;11.57;6.40;;;;;;;-143.21;58.85;71929.41;6328310;22;20167;-78
2023/09/27 06:36:56;;;;;;;17.05;6.72;;;;;;;-143.21;58.66;71923.47;6328293;22;20246;-78
2023/09/27 06:39:23;;;;;;;17.23;6.20;;;;;;;-143.21;58.47;71925.44;6328803;22;20203;-77
2023/09/27 06:41:50;;;;;;;21.10;7.95;;;;;;;-143.21;58.68;71913.53;6335421;22;20618;-79
2023/09/27 06:44:18;;;;;;;19.85;6.40;;;;;;;-143.21;58.38;71907.59;6345880;22;20160;-78
2023/09/27 06:46:48;;;;;;;29.75;6.85;;;;;;;-143.21;57.82;71901.66;6328457;22;20175;-79
2023/09/27 06:49:16;;;;;;;15.90;6.10;;;;;;;-143.21;57.55;71895.69;6327958;22;20191;-77
2023/09/27 06:51:44;;;;;;;20.05;6.82;;;;;;;-143.21;57.03;71893.72;6329685;22;20190;-78
2023/09/27 06:54:15;;;;;;;18.77;6.30;;;;;;;-143.21;57.24;71891.72;6329181;22;20675;-77
2023/09/27 06:56:42;;;;;;;15.93;6.20;;;;;;;-143.21;57.28;71879.84;6328869;22;20195;-77
2023/09/27 06:59:09;;;;;;;21.20;5.68;;;;;;;-143.21;57.01;71891.72;6328602;22;20379;-77
2023/09/27 07:01:36;;;;;;;13.07;6.20;;;;;;;-143.21;57.43;71883.81;6329028;22;20203;-78
2023/09/27 07:04:05;;;;;;;15.43;5.95;;;;;;;-143.21;57.18;71879.84;6331190;22;20168;-77
2023/09/27 07:06:32;;;;;;;12.38;5.38;;;;;;;-143.21;57.21;71881.81;6329471;22;20266;-77
2023/09/27 07:08:59;;;;;;;15.85;6.55;;;;;;;-143.21;56.76;71863.97;6329403;22;20191;-77
2023/09/27 07:11:26;;;;;;;12.15;6.18;;;;;;;-143.21;56.40;71852.06;6330296;22;20214;-77
2023/09/27 07:13:53;;;;;;;15.70;6.10;;;;;;;-143.21;56.14;71834.22;6330463;22;20167;-77
2023/09/27 07:16:26;;;;;;;17.63;6.43;;;;;;;-143.21;56.37;71832.25;6332467;22;20246;-77
2023/09/27 07:18:59;;;;;;;23.15;5.60;;;;;;;-143.21;56.03;71822.34;6331872;22;20152;-77
2023/09/27 07:21:29;;;;;;;13.20;5.43;;;;;;;-143.21;56.06;71816.38;6331058;22;20163;-78
2023/09/27 07:23:56;;;;;;;15.55;6.35;;;;;;;-143.21;55.76;71818.38;6330950;22;20155;-77
2023/09/27 07:26:23;;;;;;;23.33;6.72;;;;;;;-143.21;55.44;71804.47;6334508;22;20513;-77
2023/09/27 07:28:50;;;;;;;10.85;5.53;;;;;;;-143.21;55.13;71796.56;6331647;22;20187;-77
2023/09/27 07:31:17;;;;;;;13.45;5.32;;;;;;;-143.21;55.22;71792.59;6331411;22;20171;-76
2023/09/27 07:33:50;;;;;;;12.68;5.75;;;;;;;-143.21;54.90;71784.66;6332333;22;20175;-76
2023/09/27 07:36:17;;;;;;;15.43;5.20;;;;;;;-143.21;54.71;71774.75;6333108;22;20152;-77
2023/09/27 07:38:46;;;;;;;15.10;5.88;;;;;;;-143.21;54.39;71764.81;6334075;22;20198;-77
2023/09/27 07:41:16;;;;;;;21.10;6.00;;;;;;;-143.21;54.08;71752.94;6332880;22;20169;-77
2023/09/27 07:43:43;;;;;;;13.85;5.97;;;;;;;-143.21;54.08;71745.00;6338419;22;20247;-77
2023/09/27 07:46:12;;;;;;;18.88;5.40;;;;;;;-143.21;53.80;71737.06;6331152;22;20175;-77
2023/09/27 07:48:42;;;;;;;11.07;5.20;;;;;;;-143.21;52.90;71715.25;6332731;22;20191;-77
2023/09/27 07:51:12;;;;;;;9.63;4.85;;;;;;;-143.21;52.65;71701.38;6331221;22;20603;-77
2023/09/27 07:53:39;;;;;;;9.40;4.95;;;;;;;-143.21;52.54;71693.44;6330986;22;20228;-77
2023/09/27 07:56:09;;;;;;;19.00;5.50;;;;;;;-143.21;52.54;71687.50;6331367;22;20174;-76
2023/09/27 07:58:36;;;;;;;17.80;6.40;;;;;;;-143.21;51.86;71677.59;6330374;22;20707;-78
2023/09/27 08:01:09;;;;;;;12.00;5.18;;;;;;;-143.21;51.64;71665.69;6333621;22;20163;-78
2023/09/27 08:03:36;;;;;;;11.90;5.38;;;;;;;-143.21;51.28;71669.66;6334678;22;20626;-78
2023/09/27 08:06:04;;;;;;;15.30;5.25;;;;;;;-143.21;51.11;71655.78;6332024;22;20171;-76
2023/09/27 08:08:34;;;;;;;11.15;5.03;;;;;;;-143.21;50.78;71655.78;6331053;22;20215;-76
2023/09/27 08:11:01;;;;;;;25.80;5.68;;;;;;;-143.21;50.54;71643.88;6332763;22;20167;-76
2023/09/27 08:13:30;;;;;;;14.10;5.20;;;;;;;-143.21;50.67;71643.88;6332957;22;20167;-77
2023/09/27 08:15:57;;;;;;;16.83;4.97;;;;;;;-143.21;49.76;71645.88;6330911;22;20164;-76
2023/09/27 08:18:25;;;;;;;17.80;4.95;;;;;;;-143.21;50.02;71673.63;6330855;22;20228;-78
2023/09/27 08:20:52;;;;;;;11.35;4.80;;;;;;;-143.21;50.54;71679.56;6331882;22;20720;-78
2023/09/27 08:23:19;;;;;;;26.77;5.32;;;;;;;-143.21;50.96;71691.47;6334134;22;20512;-79
2023/09/27 08:25:48;;;;;;;13.57;5.07;;;;;;;-143.21;50.97;71681.56;6327814;22;20177;-79
2023/09/27 08:28:16;;;;;;;9.48;5.05;;;;;;;-143.21;51.27;71677.59;6327284;22;20505;-78
2023/09/27 08:30:44;;;;;;;18.73;4.80;;;;;;;-143.21;50.94;71663.72;6330573;22;20171;-79
2023/09/27 08:33:11;;;;;;;14.05;5.88;;;;;;;-143.21;50.80;71665.69;6332558;22;20171;-79
2023/09/27 08:35:38;;;;;;;19.45;5.32;;;;;;;-143.21;50.02;71651.81;6332212;22;20163;-78
2023/09/27 08:38:05;;;;;;;18.50;5.25;;;;;;;-143.21;50.12;71665.69;6331832;22;20164;-79
2023/09/27 08:40:32;;;;;;;15.57;4.82;;;;;;;-143.21;50.08;71653.78;6331148;22;20167;-79
2023/09/27 08:43:01;;;;;;;15.75;5.00;;;;;;;-143.21;49.44;71653.78;6330500;22;20678;-79
2023/09/27 08:45:28;;;;;;;14.73;5.05;;;;;;;-143.21;49.20;71637.94;6334077;22;20171;-77
2023/09/27 08:47:56;;;;;;;11.02;4.78;;;;;;;-143.21;49.59;71633.97;6331201;22;20178;-78
2023/09/27 08:50:25;;;;;;;16.85;5.03;;;;;;;-143.21;49.26;71616.13;6331186;22;20170;-76
2023/09/27 08:52:52;;;;;;;19.60;4.85;;;;;;;-143.21;48.68;71606.22;6331596;22;20167;-76
2023/09/27 08:55:20;;;;;;;12.43;4.32;;;;;;;-143.21;48.76;71618.09;6332412;22;20167;-76
2023/09/27 08:57:57;;;;;;;13.80;4.88;;;;;;;-143.21;49.23;71604.22;6335048;22;20205;-76
2023/09/27 09:00:41;;;;;;;17.05;5.30;;;;;;;-143.21;49.20;71584.41;6329108;22;20231;-76
2023/09/27 09:03:10;;;;;;;19.00;5.15;;;;;;;-143.21;49.03;71554.66;6330184;22;20256;-75
2023/09/27 09:05:39;;;;;;;16.67;5.18;;;;;;;-143.21;48.61;71530.88;6331074;22;20232;-75
2023/09/27 09:08:09;;;;;;;12.57;5.25;;;;;;;-143.21;47.82;71515.00;6331854;22;21043;-76
2023/09/27 09:10:37;;;;;;;11.70;4.60;;;;;;;-143.21;46.97;71491.22;6333491;22;20168;-76
2023/09/27 09:13:04;;;;;;;10.18;4.65;;;;;;;-143.21;46.84;71451.56;6331989;22;20164;-76
2023/09/27 09:15:35;;;;;;;17.85;5.25;;;;;;;-143.21;46.05;71423.78;6331166;22;20171;-76
2023/09/27 09:18:06;;;;;;;8.73;4.57;;;;;;;-143.21;45.37;71400.00;6330661;22;20694;-77
2023/09/27 09:20:48;;;;;;;13.18;5.32;;;;;;;-143.21;45.17;71380.19;6333986;22;20239;-77
2023/09/27 09:23:28;;;;;;;13.82;4.85;;;;;;;-143.21;44.48;71362.34;6333863;22;20187;-76
2023/09/27 09:25:56;;;;;;;15.48;4.75;;;;;;;-143.21;44.54;71364.31;6330722;22;20599;-77
2023/09/27 09:28:24;;;;;;;17.48;6.13;;;;;;;-143.21;44.83;71374.22;6331756;22;20236;-77
2023/09/27 09:30:51;;;;;;;14.18;5.00;;;;;;;-143.21;44.77;71346.47;6331200;22;20225;-77
2023/09/27 09:33:20;;;;;;;16.95;4.88;;;;;;;-143.21;44.32;71348.47;6333358;22;20168;-77
2023/09/27 09:35:52;;;;;;;17.15;4.90;;;;;;;-143.21;44.63;71320.69;6333093;22;20172;-77
2023/09/27 09:38:26;;;;;;;7.90;3.58;;;;;;;-143.21;44.43;71292.94;6327040;22;20167;-76
2023/09/27 09:40:54;;;;;;;8.32;3.90;;;;;;;-143.21;45.27;71265.19;6329363;22;20216;-79
2023/09/27 09:43:34;;;;;;;11.45;4.30;;;;;;;-143.21;43.20;71219.59;6330972;22;20198;-79
2023/09/27 09:46:03;;;;;;;25.60;5.13;;;;;;;-143.21;42.48;71172.00;6332552;22;20591;-77
2023/09/27 09:48:34;;;;;;;11.93;4.47;;;;;;;-143.21;41.24;71148.22;6331772;22;20270;-78
2023/09/27 09:51:07;;;;;;;16.13;4.97;;;;;;;-143.21;40.86;71110.56;6331638;22;20156;-78
2023/09/27 09:53:36;;;;;;;11.65;5.07;;;;;;;-143.21;39.99;71094.69;6331479;22;20217;-78
2023/09/27 09:56:05;;;;;;;12.85;4.35;;;;;;;-143.21;39.81;71053.06;6331404;22;20178;-77
2023/09/27 09:58:36;;;;;;;14.85;5.05;;;;;;;-143.21;39.86;71043.16;6333411;22;20275;-80
2023/09/27 10:01:04;;;;;;;8.27;4.47;;;;;;;-143.21;39.37;71041.16;6332825;22;20212;-79
2023/09/27 10:03:33;;;;;;;15.65;4.78;;;;;;;-143.21;39.73;71080.81;6332331;22;20168;-81
2023/09/27 10:06:02;;;;;;;14.88;5.10;;;;;;;-143.21;40.07;71120.47;6331871;22;20171;-79
2023/09/27 10:08:34;;;;;;;14.68;4.53;;;;;;;-143.21;40.11;71154.16;6331647;22;20195;-80
2023/09/27 10:11:03;;;;;;;11.77;4.60;;;;;;;-143.21;40.73;71160.13;6333822;22;20162;-81
2023/09/27 10:13:31;;;;;;;12.63;4.53;;;;;;;-143.21;40.72;71126.41;6331904;22;20668;-80
2023/09/27 10:15:59;;;;;;;12.55;4.63;;;;;;;-143.21;40.56;71102.63;6331439;22;20163;-80
2023/09/27 10:18:29;;;;;;;14.98;5.13;;;;;;;-143.21;40.62;71090.72;6332104;22;20163;-79
2023/09/27 10:21:04;;;;;;;12.80;4.53;;;;;;;-143.21;40.13;71092.72;6332329;22;20218;-79
2023/09/27 10:23:52;;;;;;;12.75;4.88;;;;;;;-143.21;40.23;71102.63;6333318;22;20208;-79
2023/09/27 10:26:20;;;;;;;12.23;4.75;;;;;;;-143.21;40.70;71136.31;6328826;22;20167;-79
2023/09/27 10:29:13;;;;;;;17.83;4.95;;;;;;;-143.21;41.10;71166.06;6332162;22;20255;-79
2023/09/27 10:32:19;;;;;;;16.58;5.05;;;;;;;-143.21;41.30;71156.16;6331102;22;20168;-81
2023/09/27 10:34:46;;;;;;;7.55;4.60;;;;;;;-143.21;41.25;71154.16;6333011;22;20227;-81
2023/09/27 10:37:13;;;;;;;11.80;4.20;;;;;;;-143.21;40.94;71146.25;6331332;22;20171;-81
2023/09/27 10:39:41;;;;;;;13.50;4.65;;;;;;;-143.21;41.33;71146.25;6333797;22;20173;-80
2023/09/27 10:42:08;;;;;;;15.88;4.10;;;;;;;-143.21;41.03;71144.25;6331784;22;20167;-80
2023/09/27 10:44:40;;;;;;;10.77;4.85;;;;;;;-143.21;41.06;71156.16;6329078;22;20171;-80
2023/09/27 10:47:07;;;;;;;13.05;4.93;;;;;;;-143.21;41.88;71166.06;6331395;22;20156;-80
2023/09/27 10:49:38;;;;;;;15.20;4.57;;;;;;;-143.21;41.67;71160.13;6332624;22;20195;-82
2023/09/27 10:52:15;;;;;;;17.02;4.40;;;;;;;-143.21;41.78;71158.13;6333899;22;20205;-80
2023/09/27 10:54:44;;;;;;;16.13;5.65;;;;;;;-143.21;41.78;71136.31;6331693;22;20159;-79
2023/09/27 10:57:12;;;;;;;14.73;5.22;;;;;;;-143.21;41.28;71102.63;6330766;22;20225;-81
2023/09/27 10:59:41;;;;;;;13.55;4.60;;;;;;;-143.21;41.46;71128.41;6331297;22;20176;-80
2023/09/27 11:02:08;;;;;;;10.25;4.72;;;;;;;-143.21;41.72;71156.16;6331898;22;20258;-80
2023/09/27 11:04:36;;;;;;;9.93;4.30;;;;;;;-143.21;42.11;71183.91;6333369;22;20268;-80
2023/09/27 11:07:04;;;;;;;11.13;4.53;;;;;;;-143.21;42.07;71170.03;6330870;22;20621;-79
2023/09/27 11:09:31;;;;;;;12.70;4.70;;;;;;;-143.21;42.28;71146.25;6331120;22;20191;-77
2023/09/27 11:11:59;;;;;;;13.88;5.15;;;;;;;-143.21;42.00;71098.66;6331255;22;20163;-80
2023/09/27 11:14:44;;;;;;;16.85;5.28;;;;;;;-143.21;40.85;71025.31;6333723;22;20217;-79
2023/09/27 11:17:16;;;;;;;12.52;4.35;;;;;;;-143.21;39.11;70951.97;6332488;22;20167;-81
2023/09/27 11:19:43;;;;;;;13.57;4.10;;;;;;;-143.21;38.29;70916.28;6332100;22;20175;-80
2023/09/27 11:22:10;;;;;;;11.00;4.00;;;;;;;-143.21;38.05;70876.63;6330597;22;20509;-80
2023/09/27 11:24:40;;;;;;;14.30;4.28;;;;;;;-143.21;37.47;70864.75;6331369;22;20221;-82
2023/09/27 11:27:09;;;;;;;13.45;4.82;;;;;;;-143.21;37.87;70868.72;6332441;22;20560;-79
2023/09/27 11:29:37;;;;;;;14.95;4.93;;;;;;;-143.21;37.36;70823.13;6331179;22;20270;-81
2023/09/27 11:32:09;;;;;;;11.50;4.40;;;;;;;-143.21;36.80;70785.44;6330395;22;20287;-81
2023/09/27 11:34:36;;;;;;;14.38;4.68;;;;;;;-143.21;36.19;70727.97;6329760;22;20166;-79
2023/09/27 11:37:05;;;;;;;17.45;5.13;;;;;;;-143.21;35.75;70670.47;6331282;22;20221;-81